KMGY

Dayton-Wright Brothers Airport

Dayton, Ohio, USA
METAR KMGY 160304Z AUTO 36011KT 2SM -RA BR OVC003 07/06 A2991 RMK AO2 CIG 003V008 P0000 T00670061
Observed Flight Rules
Dec-16 @ 03:04 UTC (40 minutes ago) Instrument Flight Rules
Wind Visibility Clouds Conditions
360° at 11 knots 2 miles
  • Overcast at 300' AGL
  • Light Rain
  • Mist
Temperatures Readings Precipitation
Current 7°C / 45°F
Dewpoint 6°C / 43°F
Humidity 93%
Altimeter 29.91" Hg
Pressure 1013 hPa
Elevation 289
Current Rain 0.005
METAR KMGY 160304Z AUTO 36011KT 2SM -RA BR OVC003 07/06 A2991 RMK AO2 CIG 003V008 P0000 T00670061
Observed Flight Rules
Dec-16 @ 03:04 UTC
(40 minutes ago)
LIFR
Wind Visibility
360° at 11 knots 2 miles
Clouds
  • Overcast at 300' AGL
Conditions
  • Light Rain
  • Mist
Temperature Dewpoint
7°C / 45°F 6°C / 43°F
Humidity Altimeter Pressure
93% 29.91" Hg 1013 hPa
Current Rain
0.005